sensor_id;sensor_type;location;lat;lon;timestamp;pressure;altitude;pressure_sealevel;temperature;humidity
28510;BME280;15723;55.684;37.928;2023-03-18T00:00:47;101792.50;;;-0.98;47.73
28510;BME280;15723;55.684;37.928;2023-03-18T00:03:14;101796.06;;;-0.99;48.43
28510;BME280;15723;55.684;37.928;2023-03-18T00:05:40;101795.94;;;-1.08;48.06
28510;BME280;15723;55.684;37.928;2023-03-18T00:08:07;101791.56;;;-1.03;48.34
28510;BME280;15723;55.684;37.928;2023-03-18T00:10:34;101791.63;;;-0.97;48.15
28510;BME280;15723;55.684;37.928;2023-03-18T00:13:01;101797.63;;;-1.13;48.13
28510;BME280;15723;55.684;37.928;2023-03-18T00:15:29;101800.34;;;-1.10;48.69
28510;BME280;15723;55.684;37.928;2023-03-18T00:17:56;101792.34;;;-1.11;48.79
28510;BME280;15723;55.684;37.928;2023-03-18T00:20:24;101795.03;;;-1.10;48.78
28510;BME280;15723;55.684;37.928;2023-03-18T00:23:07;101798.81;;;-0.89;48.36
28510;BME280;15723;55.684;37.928;2023-03-18T00:25:34;101802.06;;;-1.13;49.00
28510;BME280;15723;55.684;37.928;2023-03-18T00:28:02;101805.47;;;-1.25;49.03
28510;BME280;15723;55.684;37.928;2023-03-18T00:30:28;101800.94;;;-1.32;48.92
28510;BME280;15723;55.684;37.928;2023-03-18T00:32:55;101802.13;;;-1.10;49.07
28510;BME280;15723;55.684;37.928;2023-03-18T00:35:23;101806.47;;;-1.15;49.41
28510;BME280;15723;55.684;37.928;2023-03-18T00:37:53;101805.41;;;-1.30;48.85
28510;BME280;15723;55.684;37.928;2023-03-18T00:40:20;101807.22;;;-1.26;48.93
28510;BME280;15723;55.684;37.928;2023-03-18T00:42:52;101815.16;;;-1.32;49.16
28510;BME280;15723;55.684;37.928;2023-03-18T00:45:23;101818.72;;;-1.30;49.13
28510;BME280;15723;55.684;37.928;2023-03-18T00:47:49;101813.38;;;-1.31;49.46
28510;BME280;15723;55.684;37.928;2023-03-18T00:50:16;101817.09;;;-1.18;49.80
28510;BME280;15723;55.684;37.928;2023-03-18T00:52:42;101821.38;;;-1.30;49.62
28510;BME280;15723;55.684;37.928;2023-03-18T00:55:10;101821.50;;;-1.20;49.33
28510;BME280;15723;55.684;37.928;2023-03-18T00:57:36;101821.22;;;-1.42;49.47
28510;BME280;15723;55.684;37.928;2023-03-18T01:00:04;101826.69;;;-1.33;49.56
28510;BME280;15723;55.684;37.928;2023-03-18T01:02:32;101827.63;;;-1.29;49.61
28510;BME280;15723;55.684;37.928;2023-03-18T01:05:01;101830.22;;;-1.34;49.72
28510;BME280;15723;55.684;37.928;2023-03-18T01:07:29;101828.50;;;-1.30;49.43
28510;BME280;15723;55.684;37.928;2023-03-18T01:09:55;101837.72;;;-1.07;49.04
28510;BME280;15723;55.684;37.928;2023-03-18T01:12:22;101835.00;;;-1.11;49.01
28510;BME280;15723;55.684;37.928;2023-03-18T01:14:50;101841.97;;;-1.19;49.19
28510;BME280;15723;55.684;37.928;2023-03-18T01:17:17;101840.44;;;-1.02;49.03
28510;BME280;15723;55.684;37.928;2023-03-18T01:19:43;101839.69;;;-0.90;48.81
28510;BME280;15723;55.684;37.928;2023-03-18T01:22:09;101845.72;;;-1.05;49.29
28510;BME280;15723;55.684;37.928;2023-03-18T01:24:42;101845.19;;;-1.43;49.88
28510;BME280;15723;55.684;37.928;2023-03-18T01:27:10;101852.78;;;-1.10;49.08
28510;BME280;15723;55.684;37.928;2023-03-18T01:29:39;101849.94;;;-1.21;49.53
28510;BME280;15723;55.684;37.928;2023-03-18T01:32:12;101858.75;;;-1.25;49.54
28510;BME280;15723;55.684;37.928;2023-03-18T01:34:38;101863.56;;;-1.01;49.07
28510;BME280;15723;55.684;37.928;2023-03-18T01:37:06;101871.22;;;-1.24;49.73
28510;BME280;15723;55.684;37.928;2023-03-18T01:39:37;101871.28;;;-1.18;49.59
28510;BME280;15723;55.684;37.928;2023-03-18T01:42:09;101866.72;;;-1.28;49.89
28510;BME280;15723;55.684;37.928;2023-03-18T01:44:36;101867.38;;;-1.43;49.95
28510;BME280;15723;55.684;37.928;2023-03-18T01:47:03;101875.56;;;-1.31;49.73
28510;BME280;15723;55.684;37.928;2023-03-18T01:49:38;101875.13;;;-1.57;50.38
28510;BME280;15723;55.684;37.928;2023-03-18T01:52:11;101877.44;;;-1.23;49.57
28510;BME280;15723;55.684;37.928;2023-03-18T01:54:47;101886.19;;;-1.32;49.88
28510;BME280;15723;55.684;37.928;2023-03-18T01:57:15;101883.41;;;-1.40;50.82
28510;BME280;15723;55.684;37.928;2023-03-18T01:59:45;101882.88;;;-1.72;50.60
28510;BME280;15723;55.684;37.928;2023-03-18T02:02:14;101886.88;;;-1.97;51.49
28510;BME280;15723;55.684;37.928;2023-03-18T02:05:02;101889.09;;;-1.71;51.06
28510;BME280;15723;55.684;37.928;2023-03-18T02:07:33;101890.41;;;-1.98;51.43
28510;BME280;15723;55.684;37.928;2023-03-18T02:10:11;101890.47;;;-1.95;51.53
28510;BME280;15723;55.684;37.928;2023-03-18T02:12:42;101896.34;;;-2.14;51.99
28510;BME280;15723;55.684;37.928;2023-03-18T02:15:16;101899.22;;;-2.02;52.39
28510;BME280;15723;55.684;37.928;2023-03-18T02:17:47;101895.34;;;-1.71;51.18
28510;BME280;15723;55.684;37.928;2023-03-18T02:22:59;101917.53;;;-2.18;51.98
28510;BME280;15723;55.684;37.928;2023-03-18T02:25:45;101912.66;;;-2.39;53.09
28510;BME280;15723;55.684;37.928;2023-03-18T02:28:22;101916.94;;;-2.02;52.44
28510;BME280;15723;55.684;37.928;2023-03-18T02:30:53;101913.53;;;-1.95;52.62
28510;BME280;15723;55.684;37.928;2023-03-18T02:33:23;101917.69;;;-2.11;52.66
28510;BME280;15723;55.684;37.928;2023-03-18T02:35:56;101920.25;;;-2.15;52.48
28510;BME280;15723;55.684;37.928;2023-03-18T02:38:23;101928.81;;;-2.30;53.04
28510;BME280;15723;55.684;37.928;2023-03-18T02:40:49;101925.06;;;-1.95;52.29
28510;BME280;15723;55.684;37.928;2023-03-18T02:43:22;101919.44;;;-2.11;52.80
28510;BME280;15723;55.684;37.928;2023-03-18T02:49:12;101938.78;;;-2.20;53.26
28510;BME280;15723;55.684;37.928;2023-03-18T02:51:40;101940.69;;;-2.13;53.46
28510;BME280;15723;55.684;37.928;2023-03-18T02:54:14;101944.59;;;-2.39;54.47
28510;BME280;15723;55.684;37.928;2023-03-18T02:56:42;101944.75;;;-2.32;54.58
28510;BME280;15723;55.684;37.928;2023-03-18T02:59:09;101947.91;;;-2.07;53.66
28510;BME280;15723;55.684;37.928;2023-03-18T03:01:37;101955.84;;;-2.53;54.62
28510;BME280;15723;55.684;37.928;2023-03-18T03:04:04;101953.66;;;-2.30;54.24
28510;BME280;15723;55.684;37.928;2023-03-18T03:06:32;101953.22;;;-2.07;54.16
28510;BME280;15723;55.684;37.928;2023-03-18T03:08:59;101953.09;;;-2.13;54.48
28510;BME280;15723;55.684;37.928;2023-03-18T03:11:27;101960.50;;;-2.42;54.53
28510;BME280;15723;55.684;37.928;2023-03-18T03:13:58;101962.69;;;-2.64;55.01
28510;BME280;15723;55.684;37.928;2023-03-18T03:16:24;101965.22;;;-2.28;54.10
28510;BME280;15723;55.684;37.928;2023-03-18T03:18:55;101959.66;;;-1.95;53.51
28510;BME280;15723;55.684;37.928;2023-03-18T03:21:22;101957.31;;;-2.23;54.39
28510;BME280;15723;55.684;37.928;2023-03-18T03:23:48;101955.16;;;-1.99;53.44
28510;BME280;15723;55.684;37.928;2023-03-18T03:26:15;101962.72;;;-2.22;54.54
28510;BME280;15723;55.684;37.928;2023-03-18T03:28:42;101962.28;;;-1.98;53.94
28510;BME280;15723;55.684;37.928;2023-03-18T03:31:08;101964.03;;;-2.42;55.28
28510;BME280;15723;55.684;37.928;2023-03-18T03:33:37;101960.97;;;-2.19;54.33
28510;BME280;15723;55.684;37.928;2023-03-18T03:36:16;101964.63;;;-2.57;54.73
28510;BME280;15723;55.684;37.928;2023-03-18T03:38:42;101972.16;;;-2.76;55.81
28510;BME280;15723;55.684;37.928;2023-03-18T03:41:10;101964.47;;;-2.63;55.62
28510;BME280;15723;55.684;37.928;2023-03-18T03:43:41;101967.47;;;-2.47;55.08
28510;BME280;15723;55.684;37.928;2023-03-18T03:46:08;101968.19;;;-2.56;55.78
28510;BME280;15723;55.684;37.928;2023-03-18T03:48:36;101966.00;;;-2.33;55.08
28510;BME280;15723;55.684;37.928;2023-03-18T03:51:08;101963.56;;;-1.77;53.88
28510;BME280;15723;55.684;37.928;2023-03-18T03:53:35;101976.00;;;-1.76;53.09
28510;BME280;15723;55.684;37.928;2023-03-18T03:56:03;101968.16;;;-0.58;50.30
28510;BME280;15723;55.684;37.928;2023-03-18T03:58:30;101968.81;;;-0.07;49.07
28510;BME280;15723;55.684;37.928;2023-03-18T04:00:56;101962.56;;;0.82;47.19
28510;BME280;15723;55.684;37.928;2023-03-18T04:03:23;101974.72;;;1.68;45.63
28510;BME280;15723;55.684;37.928;2023-03-18T04:05:50;101957.91;;;2.13;44.64
28510;BME280;15723;55.684;37.928;2023-03-18T04:08:20;101963.31;;;3.41;42.31
28510;BME280;15723;55.684;37.928;2023-03-18T04:10:46;101960.47;;;3.87;40.71
28510;BME280;15723;55.684;37.928;2023-03-18T04:13:12;101965.72;;;4.07;40.76
28510;BME280;15723;55.684;37.928;2023-03-18T04:15:40;101964.16;;;3.56;40.53
28510;BME280;15723;55.684;37.928;2023-03-18T04:18:10;101965.72;;;4.04;39.38
28510;BME280;15723;55.684;37.928;2023-03-18T04:20:38;101967.94;;;4.80;38.73
28510;BME280;15723;55.684;37.928;2023-03-18T04:23:12;101960.59;;;5.83;37.60
28510;BME280;15723;55.684;37.928;2023-03-18T04:25:39;101964.63;;;4.46;38.61
28510;BME280;15723;55.684;37.928;2023-03-18T04:28:05;101968.59;;;3.73;40.01
28510;BME280;15723;55.684;37.928;2023-03-18T04:30:32;101980.97;;;4.10;40.01
28510;BME280;15723;55.684;37.928;2023-03-18T04:33:03;101972.44;;;5.72;37.66
28510;BME280;15723;55.684;37.928;2023-03-18T04:35:31;101964.56;;;6.85;35.38
28510;BME280;15723;55.684;37.928;2023-03-18T04:37:57;101961.06;;;7.30;34.90
28510;BME280;15723;55.684;37.928;2023-03-18T04:40:23;101971.72;;;6.28;34.73
28510;BME280;15723;55.684;37.928;2023-03-18T04:42:50;101973.75;;;7.72;33.24
28510;BME280;15723;55.684;37.928;2023-03-18T04:45:22;101971.34;;;8.02;33.12
28510;BME280;15723;55.684;37.928;2023-03-18T04:47:51;101973.19;;;8.43;32.98
28510;BME280;15723;55.684;37.928;2023-03-18T04:50:18;101976.41;;;8.19;32.89
28510;BME280;15723;55.684;37.928;2023-03-18T04:52:46;101974.53;;;7.31;34.02
28510;BME280;15723;55.684;37.928;2023-03-18T04:55:16;101977.84;;;8.75;31.56
28510;BME280;15723;55.684;37.928;2023-03-18T04:57:50;101974.63;;;8.59;32.29
28510;BME280;15723;55.684;37.928;2023-03-18T05:00:19;101986.34;;;7.27;32.88
28510;BME280;15723;55.684;37.928;2023-03-18T05:02:54;101984.72;;;8.88;31.83
28510;BME280;15723;55.684;37.928;2023-03-18T05:05:24;101973.00;;;10.50;28.97
28510;BME280;15723;55.684;37.928;2023-03-18T05:07:51;101981.38;;;9.81;29.88
28510;BME280;15723;55.684;37.928;2023-03-18T05:10:20;101984.25;;;9.08;30.14
28510;BME280;15723;55.684;37.928;2023-03-18T05:12:46;101987.75;;;9.80;29.94
28510;BME280;15723;55.684;37.928;2023-03-18T05:15:16;101990.22;;;8.85;30.18
28510;BME280;15723;55.684;37.928;2023-03-18T05:17:48;101981.72;;;11.16;27.38
28510;BME280;15723;55.684;37.928;2023-03-18T05:20:14;101983.47;;;11.43;28.19
28510;BME280;15723;55.684;37.928;2023-03-18T05:22:42;101985.66;;;10.78;27.57
28510;BME280;15723;55.684;37.928;2023-03-18T05:25:15;101980.06;;;11.37;26.96
28510;BME280;15723;55.684;37.928;2023-03-18T05:27:41;101987.28;;;11.38;27.46
28510;BME280;15723;55.684;37.928;2023-03-18T05:30:19;101990.28;;;11.30;27.63
28510;BME280;15723;55.684;37.928;2023-03-18T05:32:49;101985.72;;;12.07;26.39
28510;BME280;15723;55.684;37.928;2023-03-18T05:35:17;101993.75;;;10.81;27.65
28510;BME280;15723;55.684;37.928;2023-03-18T05:37:48;101990.09;;;12.34;26.42
28510;BME280;15723;55.684;37.928;2023-03-18T05:40:15;101990.97;;;12.11;26.32
28510;BME280;15723;55.684;37.928;2023-03-18T05:42:51;101996.75;;;11.77;26.77
28510;BME280;15723;55.684;37.928;2023-03-18T05:45:17;101988.34;;;13.22;25.27
28510;BME280;15723;55.684;37.928;2023-03-18T05:47:51;102001.72;;;10.28;27.17
28510;BME280;15723;55.684;37.928;2023-03-18T05:50:32;102001.38;;;10.09;28.02
28510;BME280;15723;55.684;37.928;2023-03-18T05:53:02;101994.56;;;14.07;24.43
28510;BME280;15723;55.684;37.928;2023-03-18T05:55:34;101995.41;;;11.64;26.22
28510;BME280;15723;55.684;37.928;2023-03-18T05:58:01;101983.69;;;13.87;24.16
28510;BME280;15723;55.684;37.928;2023-03-18T06:00:29;101981.94;;;15.17;22.93
28510;BME280;15723;55.684;37.928;2023-03-18T06:02:59;101993.41;;;13.09;25.23
28510;BME280;15723;55.684;37.928;2023-03-18T06:05:27;101991.94;;;13.85;24.13
28510;BME280;15723;55.684;37.928;2023-03-18T06:07:55;101983.59;;;14.66;23.49
28510;BME280;15723;55.684;37.928;2023-03-18T06:10:22;101994.81;;;12.52;25.16
28510;BME280;15723;55.684;37.928;2023-03-18T06:12:51;101995.34;;;12.62;25.22
28510;BME280;15723;55.684;37.928;2023-03-18T06:15:18;101991.09;;;14.03;24.32
28510;BME280;15723;55.684;37.928;2023-03-18T06:17:47;101993.06;;;14.39;23.61
28510;BME280;15723;55.684;37.928;2023-03-18T06:20:14;101995.19;;;13.32;24.91
28510;BME280;15723;55.684;37.928;2023-03-18T06:22:41;101985.38;;;14.67;22.86
28510;BME280;15723;55.684;37.928;2023-03-18T06:25:08;101991.84;;;16.72;21.09
28510;BME280;15723;55.684;37.928;2023-03-18T06:27:38;101981.44;;;17.10;20.83
28510;BME280;15723;55.684;37.928;2023-03-18T06:30:06;101990.06;;;16.40;20.99
28510;BME280;15723;55.684;37.928;2023-03-18T06:32:34;101991.22;;;16.51;21.33
28510;BME280;15723;55.684;37.928;2023-03-18T06:35:01;102001.56;;;14.14;22.48
28510;BME280;15723;55.684;37.928;2023-03-18T06:37:29;101993.72;;;16.23;21.65
28510;BME280;15723;55.684;37.928;2023-03-18T06:39:55;101996.63;;;14.02;23.25
28510;BME280;15723;55.684;37.928;2023-03-18T06:42:22;101994.78;;;14.23;23.40
28510;BME280;15723;55.684;37.928;2023-03-18T06:44:57;102000.63;;;15.80;22.15
28510;BME280;15723;55.684;37.928;2023-03-18T06:47:32;101996.22;;;14.69;23.33
28510;BME280;15723;55.684;37.928;2023-03-18T06:49:59;102004.28;;;14.14;22.93
28510;BME280;15723;55.684;37.928;2023-03-18T06:52:31;102005.81;;;12.73;24.40
28510;BME280;15723;55.684;37.928;2023-03-18T06:55:04;102010.16;;;13.44;24.19
28510;BME280;15723;55.684;37.928;2023-03-18T06:57:34;101999.25;;;16.06;21.69
28510;BME280;15723;55.684;37.928;2023-03-18T07:00:01;102000.25;;;15.51;21.31
28510;BME280;15723;55.684;37.928;2023-03-18T07:02:29;101996.06;;;16.46;21.10
28510;BME280;15723;55.684;37.928;2023-03-18T07:04:58;101996.59;;;16.04;21.64
28510;BME280;15723;55.684;37.928;2023-03-18T07:07:26;101992.84;;;16.71;21.16
28510;BME280;15723;55.684;37.928;2023-03-18T07:09:52;101998.91;;;16.45;20.73
28510;BME280;15723;55.684;37.928;2023-03-18T07:12:20;101997.97;;;16.29;20.44
28510;BME280;15723;55.684;37.928;2023-03-18T07:14:46;102000.13;;;14.82;21.79
28510;BME280;15723;55.684;37.928;2023-03-18T07:17:14;101996.84;;;17.13;20.36
28510;BME280;15723;55.684;37.928;2023-03-18T07:19:40;101997.72;;;17.13;21.45
28510;BME280;15723;55.684;37.928;2023-03-18T07:22:07;102001.94;;;17.19;19.71
28510;BME280;15723;55.684;37.928;2023-03-18T07:24:34;102013.97;;;14.40;22.12
28510;BME280;15723;55.684;37.928;2023-03-18T07:27:00;102005.91;;;15.31;21.70
28510;BME280;15723;55.684;37.928;2023-03-18T07:29:27;102005.91;;;15.48;21.25
28510;BME280;15723;55.684;37.928;2023-03-18T07:31:53;102017.28;;;15.58;20.92
28510;BME280;15723;55.684;37.928;2023-03-18T07:34:19;102019.38;;;14.02;22.81
28510;BME280;15723;55.684;37.928;2023-03-18T07:36:46;102010.44;;;17.30;19.37
28510;BME280;15723;55.684;37.928;2023-03-18T07:39:12;102011.00;;;14.26;20.90
28510;BME280;15723;55.684;37.928;2023-03-18T07:41:38;102005.56;;;15.54;20.79
28510;BME280;15723;55.684;37.928;2023-03-18T07:44:05;102001.72;;;16.76;19.81
28510;BME280;15723;55.684;37.928;2023-03-18T07:46:32;102012.09;;;13.83;22.47
28510;BME280;15723;55.684;37.928;2023-03-18T07:48:58;102006.59;;;14.42;20.98
28510;BME280;15723;55.684;37.928;2023-03-18T07:51:24;102003.09;;;14.96;20.56
28510;BME280;15723;55.684;37.928;2023-03-18T07:53:51;102004.97;;;16.01;19.79
28510;BME280;15723;55.684;37.928;2023-03-18T07:56:17;101991.78;;;19.09;17.34
28510;BME280;15723;55.684;37.928;2023-03-18T07:58:43;102001.38;;;16.16;18.81
28510;BME280;15723;55.684;37.928;2023-03-18T08:01:09;102016.00;;;11.98;21.02
28510;BME280;15723;55.684;37.928;2023-03-18T08:03:37;102007.09;;;13.92;19.70
28510;BME280;15723;55.684;37.928;2023-03-18T08:06:03;102011.41;;;13.13;21.10
28510;BME280;15723;55.684;37.928;2023-03-18T08:08:29;102003.47;;;14.51;19.85
28510;BME280;15723;55.684;37.928;2023-03-18T08:10:56;102009.34;;;13.42;20.12
28510;BME280;15723;55.684;37.928;2023-03-18T08:13:25;102003.13;;;13.99;19.67
28510;BME280;15723;55.684;37.928;2023-03-18T08:15:52;102017.19;;;12.14;20.57
28510;BME280;15723;55.684;37.928;2023-03-18T08:18:18;102005.31;;;13.51;20.05
28510;BME280;15723;55.684;37.928;2023-03-18T08:20:45;102010.66;;;16.14;17.62
28510;BME280;15723;55.684;37.928;2023-03-18T08:23:11;102010.72;;;14.13;18.57
28510;BME280;15723;55.684;37.928;2023-03-18T08:25:37;102002.28;;;14.18;18.64
28510;BME280;15723;55.684;37.928;2023-03-18T08:28:04;102004.69;;;15.00;17.96
28510;BME280;15723;55.684;37.928;2023-03-18T08:30:33;102015.53;;;11.60;20.37
28510;BME280;15723;55.684;37.928;2023-03-18T08:33:00;102011.03;;;12.79;19.84
28510;BME280;15723;55.684;37.928;2023-03-18T08:35:27;102002.38;;;15.98;17.13
28510;BME280;15723;55.684;37.928;2023-03-18T08:37:53;102016.72;;;12.03;19.02
28510;BME280;15723;55.684;37.928;2023-03-18T08:40:20;102005.13;;;12.68;18.41
28510;BME280;15723;55.684;37.928;2023-03-18T08:42:46;102012.50;;;11.94;18.41
28510;BME280;15723;55.684;37.928;2023-03-18T08:45:13;102019.47;;;11.76;18.52
28510;BME280;15723;55.684;37.928;2023-03-18T08:47:40;102008.34;;;11.57;19.22
28510;BME280;15723;55.684;37.928;2023-03-18T08:50:07;102010.72;;;9.66;19.91
28510;BME280;15723;55.684;37.928;2023-03-18T08:52:33;102007.69;;;11.24;20.45
28510;BME280;15723;55.684;37.928;2023-03-18T08:55:00;102009.84;;;10.59;20.04
28510;BME280;15723;55.684;37.928;2023-03-18T08:57:26;102014.16;;;8.66;22.06
28510;BME280;15723;55.684;37.928;2023-03-18T08:59:52;102007.09;;;9.33;21.49
28510;BME280;15723;55.684;37.928;2023-03-18T09:02:19;102015.38;;;9.26;22.05
28510;BME280;15723;55.684;37.928;2023-03-18T09:04:45;102007.69;;;8.33;21.93
28510;BME280;15723;55.684;37.928;2023-03-18T09:07:13;102006.66;;;6.97;23.64
28510;BME280;15723;55.684;37.928;2023-03-18T09:09:39;102009.13;;;7.11;23.82
28510;BME280;15723;55.684;37.928;2023-03-18T09:12:06;102012.00;;;6.42;23.86
28510;BME280;15723;55.684;37.928;2023-03-18T09:14:32;102015.34;;;6.59;25.14
28510;BME280;15723;55.684;37.928;2023-03-18T09:17:00;102006.97;;;6.14;25.04
28510;BME280;15723;55.684;37.928;2023-03-18T09:19:27;102009.91;;;5.93;26.02
28510;BME280;15723;55.684;37.928;2023-03-18T09:21:53;102016.72;;;5.43;27.36
28510;BME280;15723;55.684;37.928;2023-03-18T09:24:19;102006.41;;;5.83;26.64
28510;BME280;15723;55.684;37.928;2023-03-18T09:26:46;102006.81;;;5.48;26.12
28510;BME280;15723;55.684;37.928;2023-03-18T09:29:12;102001.56;;;5.34;25.50
28510;BME280;15723;55.684;37.928;2023-03-18T09:31:38;102004.34;;;5.27;26.28
28510;BME280;15723;55.684;37.928;2023-03-18T09:34:05;101998.31;;;4.96;25.65
28510;BME280;15723;55.684;37.928;2023-03-18T09:36:31;102007.25;;;4.99;27.13
28510;BME280;15723;55.684;37.928;2023-03-18T09:38:57;101993.63;;;5.21;26.58
28510;BME280;15723;55.684;37.928;2023-03-18T09:47:03;101991.75;;;5.27;27.72
28510;BME280;15723;55.684;37.928;2023-03-18T09:52:46;101973.91;;;5.14;27.59
28510;BME280;15723;55.684;37.928;2023-03-18T09:55:23;101989.16;;;5.15;28.96
28510;BME280;15723;55.684;37.928;2023-03-18T09:57:53;101976.53;;;5.23;28.86
28510;BME280;15723;55.684;37.928;2023-03-18T10:00:25;101974.97;;;4.99;27.93
28510;BME280;15723;55.684;37.928;2023-03-18T10:05:47;101957.31;;;5.55;28.99
28510;BME280;15723;55.684;37.928;2023-03-18T10:08:45;101961.41;;;5.88;28.14
28510;BME280;15723;55.684;37.928;2023-03-18T10:11:38;101961.66;;;5.72;27.88
28510;BME280;15723;55.684;37.928;2023-03-18T10:17:02;101955.13;;;5.08;28.55
28510;BME280;15723;55.684;37.928;2023-03-18T10:19:32;101947.41;;;5.60;27.88
28510;BME280;15723;55.684;37.928;2023-03-18T10:22:27;101945.66;;;5.58;28.22
28510;BME280;15723;55.684;37.928;2023-03-18T10:33:53;101941.84;;;5.76;29.18
28510;BME280;15723;55.684;37.928;2023-03-18T10:36:38;101938.09;;;5.86;27.17
28510;BME280;15723;55.684;37.928;2023-03-18T10:39:15;101933.56;;;5.88;27.98
28510;BME280;15723;55.684;37.928;2023-03-18T10:41:43;101929.59;;;5.46;27.56
28510;BME280;15723;55.684;37.928;2023-03-18T10:44:21;101932.44;;;5.35;27.93
28510;BME280;15723;55.684;37.928;2023-03-18T10:47:09;101927.34;;;5.83;26.71
28510;BME280;15723;55.684;37.928;2023-03-18T10:49:42;101918.34;;;5.85;27.29
28510;BME280;15723;55.684;37.928;2023-03-18T10:54:44;101919.06;;;6.01;25.89
28510;BME280;15723;55.684;37.928;2023-03-18T10:57:20;101914.06;;;6.37;26.83
28510;BME280;15723;55.684;37.928;2023-03-18T10:59:48;101912.16;;;5.79;26.43
28510;BME280;15723;55.684;37.928;2023-03-18T11:02:31;101912.91;;;5.88;25.27
28510;BME280;15723;55.684;37.928;2023-03-18T11:05:03;101919.06;;;6.01;25.82
28510;BME280;15723;55.684;37.928;2023-03-18T11:08:04;101909.69;;;5.62;27.49
28510;BME280;15723;55.684;37.928;2023-03-18T11:10:32;101910.78;;;5.44;28.25
28510;BME280;15723;55.684;37.928;2023-03-18T11:13:00;101902.13;;;5.91;24.80
28510;BME280;15723;55.684;37.928;2023-03-18T11:15:41;101913.63;;;6.04;25.05
28510;BME280;15723;55.684;37.928;2023-03-18T11:18:14;101909.84;;;5.47;24.22
28510;BME280;15723;55.684;37.928;2023-03-18T11:20:43;101900.59;;;5.69;25.23
28510;BME280;15723;55.684;37.928;2023-03-18T11:23:27;101904.69;;;5.27;24.85
28510;BME280;15723;55.684;37.928;2023-03-18T11:26:28;101904.44;;;5.47;25.17
28510;BME280;15723;55.684;37.928;2023-03-18T11:29:04;101903.97;;;5.10;26.16
28510;BME280;15723;55.684;37.928;2023-03-18T11:31:53;101897.50;;;5.27;26.26
28510;BME280;15723;55.684;37.928;2023-03-18T11:34:28;101900.06;;;5.40;25.54
28510;BME280;15723;55.684;37.928;2023-03-18T11:36:57;101889.72;;;5.75;26.56
28510;BME280;15723;55.684;37.928;2023-03-18T11:39:30;101885.19;;;5.79;24.82
28510;BME280;15723;55.684;37.928;2023-03-18T11:41:59;101885.13;;;5.83;25.31
28510;BME280;15723;55.684;37.928;2023-03-18T11:44:32;101888.88;;;5.72;25.00
28510;BME280;15723;55.684;37.928;2023-03-18T11:47:02;101886.28;;;5.64;24.63
28510;BME280;15723;55.684;37.928;2023-03-18T11:49:30;101886.94;;;5.81;24.43
28510;BME280;15723;55.684;37.928;2023-03-18T11:55:06;101874.38;;;5.82;25.06
28510;BME280;15723;55.684;37.928;2023-03-18T12:00:54;101875.81;;;5.38;24.88
28510;BME280;15723;55.684;37.928;2023-03-18T12:03:46;101868.88;;;5.91;25.54
28510;BME280;15723;55.684;37.928;2023-03-18T12:06:21;101875.59;;;5.59;25.95
28510;BME280;15723;55.684;37.928;2023-03-18T12:08:52;101874.03;;;5.37;23.97
28510;BME280;15723;55.684;37.928;2023-03-18T12:14:22;101876.59;;;5.49;24.76
28510;BME280;15723;55.684;37.928;2023-03-18T12:17:34;101877.22;;;5.70;22.59
28510;BME280;15723;55.684;37.928;2023-03-18T12:22:56;101863.06;;;5.52;23.80
28510;BME280;15723;55.684;37.928;2023-03-18T12:33:58;101858.56;;;5.53;24.54
28510;BME280;15723;55.684;37.928;2023-03-18T12:45:36;101852.22;;;5.60;22.26
28510;BME280;15723;55.684;37.928;2023-03-18T12:48:57;101846.56;;;5.78;23.04
28510;BME280;15723;55.684;37.928;2023-03-18T12:51:11;101839.53;;;5.68;23.22
28510;BME280;15723;55.684;37.928;2023-03-18T12:53:43;101830.69;;;5.55;23.38
28510;BME280;15723;55.684;37.928;2023-03-18T12:56:26;101836.84;;;5.67;23.43
28510;BME280;15723;55.684;37.928;2023-03-18T12:59:23;101837.91;;;5.55;23.27
28510;BME280;15723;55.684;37.928;2023-03-18T13:04:38;101836.13;;;5.52;21.03
28510;BME280;15723;55.684;37.928;2023-03-18T13:07:19;101829.38;;;5.87;23.29
28510;BME280;15723;55.684;37.928;2023-03-18T13:10:06;101826.59;;;5.93;23.26
28510;BME280;15723;55.684;37.928;2023-03-18T13:12:40;101837.69;;;5.72;23.26
28510;BME280;15723;55.684;37.928;2023-03-18T13:15:20;101829.59;;;5.72;23.05
28510;BME280;15723;55.684;37.928;2023-03-18T13:17:52;101816.91;;;5.80;22.49
28510;BME280;15723;55.684;37.928;2023-03-18T13:20:27;101818.25;;;5.47;22.99
28510;BME280;15723;55.684;37.928;2023-03-18T13:34:41;101797.47;;;5.56;24.18
28510;BME280;15723;55.684;37.928;2023-03-18T13:40:02;101795.25;;;5.23;23.12
28510;BME280;15723;55.684;37.928;2023-03-18T13:42:38;101792.50;;;5.26;21.36
28510;BME280;15723;55.684;37.928;2023-03-18T13:45:37;101787.13;;;5.26;21.96
28510;BME280;15723;55.684;37.928;2023-03-18T13:48:09;101786.41;;;5.09;22.59
28510;BME280;15723;55.684;37.928;2023-03-18T13:50:39;101776.94;;;5.48;22.17
28510;BME280;15723;55.684;37.928;2023-03-18T13:53:30;101789.03;;;5.15;21.38
28510;BME280;15723;55.684;37.928;2023-03-18T13:58:26;101787.63;;;4.83;22.09
28510;BME280;15723;55.684;37.928;2023-03-18T14:04:18;101779.56;;;4.83;22.57
28510;BME280;15723;55.684;37.928;2023-03-18T14:14:01;101765.28;;;4.75;22.45
28510;BME280;15723;55.684;37.928;2023-03-18T14:19:18;101760.28;;;5.17;22.62
28510;BME280;15723;55.684;37.928;2023-03-18T14:22:04;101756.28;;;4.76;23.53
28510;BME280;15723;55.684;37.928;2023-03-18T14:24:30;101763.41;;;4.80;22.46
28510;BME280;15723;55.684;37.928;2023-03-18T14:29:26;101746.94;;;5.08;22.33
28510;BME280;15723;55.684;37.928;2023-03-18T14:31:59;101759.59;;;5.01;22.90
28510;BME280;15723;55.684;37.928;2023-03-18T14:34:32;101746.22;;;4.95;22.97
28510;BME280;15723;55.684;37.928;2023-03-18T14:39:32;101747.13;;;4.94;22.20